createdAt,value
2023-04-07T00:00:21.811Z,29.70
2023-04-07T00:04:23.464Z,28.93
2023-04-07T00:08:25.023Z,27.13
2023-04-07T00:12:26.565Z,28.20
2023-04-07T00:16:27.872Z,29.17
2023-04-07T00:20:29.370Z,28.43
2023-04-07T00:24:34.159Z,27.60
2023-04-07T00:28:36.183Z,28.93
2023-04-07T00:32:37.537Z,27.93
2023-04-07T00:36:38.831Z,28.53
2023-04-07T00:40:40.251Z,29.10
2023-04-07T00:44:41.696Z,28.57
2023-04-07T00:48:43.069Z,27.73
2023-04-07T00:52:44.997Z,30.40
2023-04-07T00:56:46.392Z,30.23
2023-04-07T01:01:01.120Z,30.93
2023-04-07T01:05:09.410Z,29.70
2023-04-07T01:09:23.169Z,30.93
2023-04-07T01:13:42.797Z,30.57
2023-04-07T01:17:49.393Z,30.67
2023-04-07T01:21:54.014Z,30.77
2023-04-07T01:26:10.909Z,29.17
2023-04-07T01:30:13.226Z,28.80
2023-04-07T01:34:16.683Z,27.20
2023-04-07T01:38:18.883Z,26.60
2023-04-07T01:42:21.455Z,27.30
2023-04-07T01:46:22.971Z,25.83
2023-04-07T01:50:25.402Z,23.87
2023-04-07T01:54:27.463Z,26.70
2023-04-07T01:58:29.472Z,24.87
2023-04-07T02:02:33.708Z,25.00
2023-04-07T02:06:42.606Z,26.77
2023-04-07T02:10:47.758Z,26.53
2023-04-07T02:14:49.510Z,26.70
2023-04-07T02:18:51.009Z,26.30
2023-04-07T02:22:53.685Z,26.23
2023-04-07T02:26:56.211Z,27.80
2023-04-07T02:30:57.774Z,31.37
2023-04-07T02:34:59.182Z,31.93
2023-04-07T02:39:00.890Z,32.40
2023-04-07T02:43:02.733Z,32.73
2023-04-07T02:47:04.112Z,33.47
2023-04-07T02:51:05.586Z,34.67
2023-04-07T02:55:07.285Z,34.27
2023-04-07T02:59:08.733Z,35.03
2023-04-07T03:03:10.379Z,35.00
2023-04-07T03:07:11.795Z,36.20
2023-04-07T03:11:13.151Z,34.97
2023-04-07T03:15:14.552Z,35.80
2023-04-07T03:19:16.363Z,35.67
2023-04-07T03:23:18.104Z,36.33
2023-04-07T03:27:20.251Z,35.60
2023-04-07T03:31:21.946Z,34.37
2023-04-07T03:35:23.551Z,35.57
2023-04-07T03:39:24.889Z,37.10
2023-04-07T03:43:26.583Z,36.80
2023-04-07T03:47:27.892Z,36.13
2023-04-07T03:51:29.470Z,37.37
2023-04-07T03:55:31.245Z,35.53
2023-04-07T03:59:32.925Z,35.77
2023-04-07T04:03:35.272Z,33.97
2023-04-07T04:07:36.722Z,34.30
2023-04-07T04:11:38.126Z,33.47
2023-04-07T04:15:39.451Z,34.20
2023-04-07T04:19:40.803Z,33.97
2023-04-07T04:23:42.171Z,35.80
2023-04-07T04:27:43.499Z,32.60
2023-04-07T04:31:45.046Z,34.37
2023-04-07T04:35:47.097Z,33.90
2023-04-07T04:39:48.443Z,36.43
2023-04-07T04:43:49.749Z,36.97
2023-04-07T04:47:51.188Z,37.43
2023-04-07T04:51:52.650Z,37.97
2023-04-07T04:55:54.165Z,35.73
2023-04-07T04:59:55.643Z,36.37
2023-04-07T05:03:57.162Z,34.60
2023-04-07T05:07:58.743Z,33.80
2023-04-07T05:12:01.667Z,32.63
2023-04-07T05:16:03.105Z,31.90
2023-04-07T05:20:05.027Z,29.43
2023-04-07T05:24:08.136Z,29.13
2023-04-07T05:28:16.497Z,27.70
2023-04-07T05:32:19.320Z,24.97
2023-04-07T05:36:20.726Z,24.40
2023-04-07T05:40:22.180Z,24.53
2023-04-07T05:44:23.612Z,23.30
2023-04-07T05:48:25.490Z,22.47
2023-04-07T05:52:27.013Z,21.40
2023-04-07T05:56:28.330Z,20.30
2023-04-07T06:00:29.773Z,19.47
2023-04-07T06:04:31.453Z,19.20
2023-04-07T06:08:32.771Z,19.23
2023-04-07T06:12:34.082Z,20.17
2023-04-07T06:16:35.443Z,18.10
2023-04-07T06:20:36.893Z,19.17
2023-04-07T06:24:38.241Z,18.43
2023-04-07T06:28:39.850Z,17.30
2023-04-07T06:32:41.396Z,16.63
2023-04-07T06:36:42.735Z,15.30
2023-04-07T06:40:44.071Z,14.00
2023-04-07T06:44:45.435Z,13.00
2023-04-07T06:48:47.460Z,13.07
2023-04-07T06:52:48.834Z,13.23
2023-04-07T06:56:50.668Z,12.33
2023-04-07T07:00:51.954Z,11.57
2023-04-07T07:04:53.265Z,11.60
2023-04-07T07:08:54.845Z,10.00
2023-04-07T07:12:56.289Z,10.53
2023-04-07T07:16:57.599Z,10.27
2023-04-07T07:20:59.003Z,9.37
2023-04-07T07:25:00.348Z,9.93
2023-04-07T07:29:01.920Z,9.47
2023-04-07T07:33:03.396Z,10.00
2023-04-07T07:37:04.882Z,9.93
2023-04-07T07:41:06.960Z,9.10
2023-04-07T07:45:08.785Z,9.80
2023-04-07T07:49:10.383Z,9.60
2023-04-07T07:53:11.705Z,10.53
2023-04-07T07:57:13.029Z,10.97
2023-04-07T08:01:14.539Z,10.63
2023-04-07T08:05:15.919Z,10.60
2023-04-07T08:09:18.432Z,10.70
2023-04-07T08:13:19.741Z,10.33
2023-04-07T08:17:21.120Z,9.87
2023-04-07T08:21:22.439Z,10.43
2023-04-07T08:25:23.862Z,11.07
2023-04-07T08:29:25.241Z,10.80
2023-04-07T08:33:26.613Z,10.43
2023-04-07T08:37:27.907Z,10.73
2023-04-07T08:41:36.648Z,9.10
2023-04-07T08:45:40.524Z,10.27
2023-04-07T08:49:44.866Z,9.77
2023-04-07T08:53:51.158Z,9.60
2023-04-07T08:57:53.616Z,10.10
2023-04-07T09:01:55.324Z,9.83
2023-04-07T09:05:57.198Z,9.40
2023-04-07T09:09:58.752Z,10.40
2023-04-07T09:14:01.580Z,9.53
2023-04-07T09:18:03.233Z,9.47
2023-04-07T09:22:04.781Z,9.80
2023-04-07T09:26:22.737Z,8.93
2023-04-07T09:30:24.552Z,8.40
2023-04-07T09:34:30.366Z,8.90
2023-04-07T09:38:42.051Z,8.20
2023-04-07T09:42:48.204Z,8.37
2023-04-07T09:46:53.348Z,7.90
2023-04-07T09:51:06.442Z,7.97
2023-04-07T09:55:08.182Z,8.03
2023-04-07T09:59:10.538Z,8.20
2023-04-07T10:03:12.449Z,8.60
2023-04-07T10:07:15.510Z,8.03
2023-04-07T10:11:17.957Z,8.60
2023-04-07T10:15:19.623Z,9.47
2023-04-07T10:19:21.923Z,10.27
2023-04-07T10:23:32.289Z,10.17
2023-04-07T10:28:00.369Z,10.60
2023-04-07T10:32:03.225Z,12.03
2023-04-07T10:36:07.580Z,12.77
2023-04-07T10:40:27.744Z,12.53
2023-04-07T10:44:41.905Z,13.27
2023-04-07T10:48:43.239Z,12.90
2023-04-07T10:52:47.010Z,12.50
2023-04-07T10:57:03.436Z,12.53
2023-04-07T11:01:07.913Z,12.67
2023-04-07T11:05:20.366Z,12.70
2023-04-07T11:09:22.665Z,13.93
2023-04-07T11:13:24.039Z,13.77
2023-04-07T11:17:27.559Z,13.07
2023-04-07T11:21:30.302Z,12.83
2023-04-07T11:25:36.440Z,13.07
2023-04-07T11:29:38.627Z,12.50
2023-04-07T11:33:40.814Z,12.60
2023-04-07T11:37:42.580Z,12.47
2023-04-07T11:41:48.275Z,12.23
2023-04-07T11:46:13.644Z,13.00
2023-04-07T11:50:15.549Z,12.63
2023-04-07T11:54:16.964Z,10.87
2023-04-07T11:58:20.454Z,12.10
2023-04-07T12:02:34.990Z,10.77
2023-04-07T12:06:38.797Z,10.90
2023-04-07T12:10:41.380Z,11.50
2023-04-07T12:14:42.688Z,11.00
2023-04-07T12:18:44.050Z,10.73
2023-04-07T12:22:45.519Z,10.80
2023-04-07T12:26:47.994Z,10.37
2023-04-07T12:30:49.358Z,9.63
2023-04-07T12:34:50.647Z,10.60
2023-04-07T12:38:52.722Z,11.30
2023-04-07T12:42:54.157Z,11.10
2023-04-07T12:46:55.657Z,10.40
2023-04-07T12:50:56.979Z,9.57
2023-04-07T12:54:58.661Z,8.63
2023-04-07T12:59:00.011Z,10.77
2023-04-07T13:03:01.559Z,10.93
2023-04-07T13:07:03.269Z,11.90
2023-04-07T13:11:04.817Z,13.60
2023-04-07T13:15:07.479Z,15.93
2023-04-07T13:19:09.433Z,13.70
2023-04-07T13:23:11.976Z,15.03
2023-04-07T13:27:13.920Z,17.13
2023-04-07T13:31:16.332Z,13.87
2023-04-07T13:35:18.249Z,10.80
2023-04-07T13:39:19.554Z,10.13
2023-04-07T13:43:20.896Z,10.93
2023-04-07T13:47:22.548Z,11.23
2023-04-07T13:51:24.242Z,9.80
2023-04-07T13:55:25.576Z,8.93
2023-04-07T13:59:26.944Z,8.63
2023-04-07T14:03:28.614Z,9.03
2023-04-07T14:07:30.256Z,9.20
2023-04-07T14:11:32.761Z,8.30
2023-04-07T14:15:34.128Z,7.70
2023-04-07T14:19:35.602Z,7.83
2023-04-07T14:23:37.952Z,8.20
2023-04-07T14:27:39.419Z,9.43
2023-04-07T14:31:40.844Z,9.63
2023-04-07T14:35:42.242Z,9.63
2023-04-07T14:39:48.502Z,10.37
2023-04-07T14:43:57.332Z,10.33
2023-04-07T14:47:58.660Z,11.30
2023-04-07T14:52:00.115Z,12.07
2023-04-07T14:56:04.517Z,12.87
2023-04-07T15:00:09.556Z,11.83
2023-04-07T15:04:11.105Z,12.87
2023-04-07T15:08:12.537Z,12.67
2023-04-07T15:12:13.818Z,12.93
2023-04-07T15:16:15.772Z,11.93
2023-04-07T15:20:17.262Z,12.57
2023-04-07T15:24:19.564Z,12.50
2023-04-07T15:28:21.012Z,12.47
2023-04-07T15:32:22.351Z,12.00
2023-04-07T15:36:23.864Z,12.40
2023-04-07T15:40:25.326Z,11.30
2023-04-07T15:44:26.761Z,10.90
2023-04-07T15:48:28.073Z,10.57
2023-04-07T15:52:30.568Z,11.50
2023-04-07T15:56:31.909Z,10.97
2023-04-07T16:00:34.598Z,9.67
2023-04-07T16:04:35.897Z,10.20
2023-04-07T16:08:37.252Z,11.10
2023-04-07T16:12:39.826Z,9.73
2023-04-07T16:16:41.438Z,9.03
2023-04-07T16:20:42.985Z,9.47
2023-04-07T16:24:44.663Z,9.20
2023-04-07T16:28:45.987Z,9.90
2023-04-07T16:32:47.532Z,9.03
2023-04-07T16:36:50.286Z,9.50
2023-04-07T16:41:03.168Z,8.70
2023-04-07T16:45:06.161Z,8.17
2023-04-07T16:49:07.615Z,7.67
2023-04-07T16:53:08.994Z,8.30
2023-04-07T16:57:11.926Z,8.40
2023-04-07T17:01:13.280Z,8.30
2023-04-07T17:05:14.689Z,9.37
2023-04-07T17:09:17.510Z,8.70
2023-04-07T17:13:18.930Z,8.83
2023-04-07T17:17:20.558Z,9.30
2023-04-07T17:21:21.997Z,9.37
2023-04-07T17:25:23.286Z,10.50
2023-04-07T17:29:28.932Z,9.10
2023-04-07T17:33:31.067Z,9.67
2023-04-07T17:37:32.685Z,10.03
2023-04-07T17:41:38.412Z,8.93
2023-04-07T17:45:39.938Z,9.70
2023-04-07T17:49:42.117Z,8.83
2023-04-07T17:53:43.557Z,9.37
2023-04-07T17:57:44.962Z,10.93
2023-04-07T18:01:46.524Z,10.03
2023-04-07T18:05:48.930Z,10.30
2023-04-07T18:09:50.634Z,10.53
2023-04-07T18:13:52.017Z,9.93
2023-04-07T18:17:54.891Z,9.47
2023-04-07T18:21:56.349Z,10.13
2023-04-07T18:25:58.383Z,10.80
2023-04-07T18:29:59.740Z,11.77
2023-04-07T18:34:01.085Z,12.63
2023-04-07T18:38:04.635Z,11.47
2023-04-07T18:42:05.934Z,10.87
2023-04-07T18:46:07.381Z,11.40
2023-04-07T18:50:08.988Z,11.23
2023-04-07T18:54:10.557Z,10.67
2023-04-07T18:58:11.883Z,11.77
2023-04-07T19:02:13.318Z,10.87
2023-04-07T19:06:18.229Z,12.00
2023-04-07T19:10:19.742Z,10.77
2023-04-07T19:14:21.110Z,11.67
2023-04-07T19:18:22.667Z,11.83
2023-04-07T19:22:23.962Z,11.20
2023-04-07T19:26:26.610Z,11.87
2023-04-07T19:30:27.960Z,13.23
2023-04-07T19:34:29.282Z,13.37
2023-04-07T19:38:30.880Z,12.83
2023-04-07T19:42:32.324Z,13.10
2023-04-07T19:46:33.696Z,14.23
2023-04-07T19:50:41.242Z,15.33
2023-04-07T19:54:42.675Z,13.17
2023-04-07T19:58:44.102Z,14.60
2023-04-07T20:02:45.810Z,13.77
2023-04-07T20:06:47.276Z,13.30
2023-04-07T20:10:51.296Z,13.77
2023-04-07T20:14:52.642Z,12.47
2023-04-07T20:18:54.027Z,13.27
2023-04-07T20:22:55.527Z,12.90
2023-04-07T20:26:57.632Z,13.00
2023-04-07T20:30:59.211Z,12.70
2023-04-07T20:35:03.262Z,13.67
2023-04-07T20:39:04.628Z,13.23
2023-04-07T20:43:06.053Z,13.53
2023-04-07T20:47:12.406Z,13.00
2023-04-07T20:51:13.833Z,14.27
2023-04-07T20:55:15.253Z,15.27
2023-04-07T20:59:16.756Z,14.90
2023-04-07T21:03:18.338Z,13.07
2023-04-07T21:07:19.897Z,13.13
2023-04-07T21:11:21.815Z,14.50
2023-04-07T21:15:23.485Z,13.37
2023-04-07T21:19:24.822Z,13.83
2023-04-07T21:23:26.278Z,13.37
2023-04-07T21:27:29.228Z,13.50
2023-04-07T21:31:30.711Z,13.07
2023-04-07T21:35:32.040Z,12.43
2023-04-07T21:39:34.780Z,14.23
2023-04-07T21:43:36.235Z,14.00
2023-04-07T21:47:37.696Z,13.97
2023-04-07T21:51:39.044Z,13.90
2023-04-07T21:55:40.375Z,13.97
2023-04-07T21:59:41.723Z,13.60
2023-04-07T22:03:44.425Z,13.30
2023-04-07T22:07:46.694Z,13.47
2023-04-07T22:11:48.089Z,14.07
2023-04-07T22:15:50.509Z,14.30
2023-04-07T22:19:51.895Z,13.53
2023-04-07T22:23:53.225Z,14.33
2023-04-07T22:27:56.680Z,14.83
2023-04-07T22:31:58.060Z,14.00
2023-04-07T22:35:59.489Z,15.87
2023-04-07T22:40:00.957Z,15.43
2023-04-07T22:44:02.293Z,16.63
2023-04-07T22:48:03.716Z,15.97
2023-04-07T22:52:05.495Z,17.17
2023-04-07T22:56:07.263Z,17.03
2023-04-07T23:00:09.719Z,16.57
2023-04-07T23:04:11.159Z,17.13
2023-04-07T23:08:12.439Z,18.03
2023-04-07T23:12:13.737Z,17.23
2023-04-07T23:16:15.490Z,17.30
2023-04-07T23:20:16.896Z,18.03
2023-04-07T23:24:18.188Z,17.33
2023-04-07T23:28:19.499Z,18.53
2023-04-07T23:32:21.403Z,17.43
2023-04-07T23:36:22.727Z,17.67
2023-04-07T23:40:24.028Z,16.93
2023-04-07T23:44:25.340Z,17.23
2023-04-07T23:48:27.181Z,17.87
2023-04-07T23:52:28.491Z,17.53
2023-04-07T23:56:29.867Z,18.17
